x

Lake Nipissing (45152) Wave Buoy

7:00pm - Mon 25th May 2015 All times are CDT. -5 hours from GMT.

  • Sig Wave height 0.3ft
  • Peak Period 2s
  • Wind
    7mph
  • Sea Temp 51°f
  • Sea Pressure 1009.1mb
  • Lake Nipissing
  • Lake Nipissing

More Historic Weather Station data

Upgrade to MSW Pro to gain access to the past 30 days of data for over 8000 Wavebouys and Weather Stations around the globe.

Join Pro

Comparision Forecast

View Surf forecast
   
Mon 05/25 7:00pm 0.3ft 2s 7
mph
1009.1mb 51f -
6:00pm 0.3ft 2s 4
mph
1009.6mb 51f -
5:00pm 0.7ft 2s 7
mph
1011.8mb 51f 54f
4:00pm 0.7ft 2s 9 11 mph 1012.3mb 51f 55f
3:00pm 0.7ft 2s 11 16 mph 1013.3mb 51f 55f
2:00pm 1ft 2s 9 13 mph 1013.4mb 51f 87f
1:00pm 1ft 2s 11 13 mph 1013.9mb 51f 88f
12:00pm 0.7ft 2s 13 16 mph 1014mb 51f -
11:00am 0.3ft 2s 9 11 mph 1015.1mb 51f -
10:00am  -  4s 9
mph
1015.8mb 51f -
9:00am  -  4s 9
mph
1016.5mb 51f -
8:00am  -  2s 9
mph
1016.4mb 51f -
7:00am  -  3s 7
mph
1016.7mb 51f -
6:00am 0.3ft 2s 4 7 mph 1017.2mb 51f -
5:00am 0.3ft 2s 9 13 mph 1017.3mb 51f -
4:00am  -  2s 9 13 mph 1016.9mb 51f -
3:00am 0.3ft 3s 7 9 mph 1016.4mb 51f -
2:00am 0.3ft 2s 7 9 mph 1016.5mb 51f -
1:00am 0.7ft 2s 11 13 mph 1016.3mb 51f -
12:00am 0.7ft 2s 16 18 mph 1016.3mb 51f -
Sun 05/24 11:00pm 1ft 2s 13 16 mph 1016.3mb 51f -
10:00pm 0.7ft 2s 16 20 mph 1016.4mb 51f -
9:00pm 0.7ft 2s 16 20 mph 1016.7mb 51f -
8:00pm 1ft 2s 13 18 mph 1016.1mb 51f -
7:00pm 1.3ft 3s 16 20 mph 1016.2mb 51f -
6:00pm 1.3ft 3s 20 27 mph 1016.1mb 51f -
5:00pm 1.3ft 3s 18 22 mph 1017.1mb 51f 67f
4:00pm 1.6ft 3s 18 22 mph 1017.5mb 51f 68f
3:00pm 1.6ft 3s 18 27 mph 1018mb 52f 68f
2:00pm 1ft 2s 18 22 mph 1018.5mb 53f 67f
1:00pm 0.3ft 2s 9 11 mph 1018.8mb 55f 65f
12:00pm 0.3ft 2s 4
mph
1019.4mb 54f 59f
11:00am 0.3ft 3s 4 7 mph 1019.8mb 53f 56f
10:00am 0.3ft 2s 4 7 mph 1019.8mb 51f 59f
9:00am 0.7ft 2s 7
mph
1020.3mb 50f 57f
8:00am 1ft 2s 13 18 mph 1020.7mb 50f 56f
7:00am 1ft 2s 13 18 mph 1020.9mb 50f 56f
6:00am 1ft 2s 18 22 mph 1020.5mb 50f 55f
5:00am 1ft 2s 18 22 mph 1020mb 50f 55f
4:00am 1ft 2s 16 20 mph 1019.2mb 50f 56f
3:00am 0.3ft 2s 11 16 mph 1019.5mb 50f 55f
2:00am 0.3ft 3s 9 11 mph 1019.8mb 50f 54f
1:00am 0.7ft 3s 4 7 mph 1020.3mb 50f 53f
12:00am 1ft 2s 7
mph
1020.4mb 50f 54f
Sat 05/23 11:00pm 1.3ft 3s 11 16 mph 1020.4mb 50f 56f
10:00pm 1.3ft 3s 18 22 mph 1019.7mb 50f 56f
9:00pm 1.3ft 3s 22 27 mph 1019mb 50f 57f
8:00pm 1.6ft 3s 22 29 mph 1018.4mb 50f 58f
7:00pm 2ft 3s 22 29 mph 1018.1mb 50f 59f
6:00pm 2ft 3s 25 34 mph 1018.5mb 50f 60f
5:00pm 2.5ft 3s 25 31 mph 1019.2mb 50f 60f
4:00pm 2ft 3s 22 29 mph 1019.7mb 50f 60f
3:00pm 2ft 3s 25 31 mph 1020.6mb 50f 58f
2:00pm 1.3ft 3s 22 27 mph 1021.6mb 50f 57f
1:00pm 1.3ft 3s 18 27 mph 1023.1mb 50f 55f
12:00pm 1ft 3s 18 27 mph 1023.3mb 50f 53f
11:00am 1ft 2s 16 22 mph 1025.1mb 50f 53f
10:00am 1ft 2s 13
mph
1025.5mb 50f 51f
9:00am 0.7ft 2s 16 20 mph 1026mb 50f 49f
8:00am 0.7ft 2s 11 13 mph 1026.3mb 49f 46f
7:00am 0.7ft 2s 13 16 mph 1026.5mb 49f 42f
6:00am 0.7ft 2s 13 18 mph 1026.4mb 49f 40f
5:00am 0.7ft 2s 11 13 mph 1026.3mb 49f 38f
4:00am 0.3ft 2s 13 16 mph 1025.5mb 50f 38f
3:00am  -  3s 7 9 mph 1025.4mb 50f 40f
2:00am  -  3s 4 7 mph 1025.3mb 50f 41f
1:00am  -  2s 7
mph
1025.4mb 50f 42f
12:00am  -  2s 4
mph
1025.4mb 50f 43f
Fri 05/22 11:00pm 0.3ft 2s 2 4 mph 1025.5mb 50f 44f
10:00pm 0.3ft 2s 4
mph
1025.3mb 50f 44f
9:00pm 0.3ft 2s 7 9 mph 1024.9mb 50f 44f
8:00pm 0.7ft 2s 7 11 mph 1024mb 50f 45f
7:00pm 0.7ft 2s 11 13 mph 1023.8mb 50f 45f
6:00pm 0.7ft 2s 7 11 mph 1023.4mb 50f 45f
5:00pm 0.7ft 2s 11 16 mph 1023.3mb 50f 45f
4:00pm 0.7ft 2s 9 16 mph 1023mb 50f 44f
3:00pm 0.7ft 2s 11 16 mph 1022.6mb 50f 42f
2:00pm 0.7ft 2s 11 13 mph 1022.4mb 50f 42f
1:00pm 0.7ft 2s 9 13 mph 1021.9mb 50f 41f
12:00pm 1ft 2s 9 13 mph 1021.7mb 50f 39f
11:00am 0.7ft 2s 13 18 mph 1021.4mb 50f 39f
10:00am 0.7ft 2s 11 16 mph 1020.9mb 50f 38f
9:00am 0.7ft 2s 11 16 mph 1020.4mb 50f 38f
8:00am 0.7ft 2s 16 20 mph 1019.8mb 50f 37f
7:00am  -   -  13
mph
1019.3mb - 37f
6:00am 0.7ft 2s 13 18 mph 1018.4mb 50f 37f
5:00am 0.7ft 2s 13 18 mph 1017.5mb 50f 37f
4:00am 1ft 2s 16 20 mph 1016.9mb 50f 37f
3:00am 1.3ft 2s 18 25 mph 1015.7mb 50f 39f
2:00am 1ft 2s 18 25 mph 1014.7mb 50f 41f